Home > Products > Valid Products > TAF

000
FTUS44 KMOB 050534
TAFMOB
TAF
KMOB 050534Z 0506/0606 19012KT P6SM VCSH BKN014 BKN018 OVC027
     FM050800 18006KT 1/2SM FG OVC002
     FM051500 35016G26KT 3SM -RA BR OVC004
     FM051800 36016KT P6SM OVC015
      TEMPO 0518/0520 4SM -RA BR BKN010
     FM060000 36015G22KT P6SM OVC015=



000
FTUS44 KMOB 050534
TAFPNS
TAF
KPNS 050534Z 0506/0606 17012KT 5SM BR OVC003
     FM051600 35016G26KT 2SM -RA BR OVC004
     FM052000 35015KT 4SM -RA BR OVC015
      TEMPO 0520/0522 4SM -RA BR BKN010
     FM060200 36015G22KT P6SM OVC015=



000
FTUS44 KMOB 050534
TAFMOB
TAF
KMOB 050534Z 0506/0606 19012KT P6SM VCSH BKN014 BKN018 OVC027
     FM050800 18006KT 1/2SM FG OVC002
     FM051500 35016G26KT 3SM -RA BR OVC004
     FM051800 36016KT P6SM OVC015
      TEMPO 0518/0520 4SM -RA BR BKN010
     FM060000 36015G22KT P6SM OVC015=



000
FTUS44 KMOB 050534
TAFPNS
TAF
KPNS 050534Z 0506/0606 17012KT 5SM BR OVC003
     FM051600 35016G26KT 2SM -RA BR OVC004
     FM052000 35015KT 4SM -RA BR OVC015
      TEMPO 0520/0522 4SM -RA BR BKN010
     FM060200 36015G22KT P6SM OVC015=



000
FTUS44 KMOB 050534
TAFPNS
TAF
KPNS 050534Z 0506/0606 17012KT 5SM BR OVC003
     FM051600 35016G26KT 2SM -RA BR OVC004
     FM052000 35015KT 4SM -RA BR OVC015
      TEMPO 0520/0522 4SM -RA BR BKN010
     FM060200 36015G22KT P6SM OVC015=



000
FTUS44 KMOB 050534
TAFPNS
TAF
KPNS 050534Z 0506/0606 17012KT 5SM BR OVC003
     FM051600 35016G26KT 2SM -RA BR OVC004
     FM052000 35015KT 4SM -RA BR OVC015
      TEMPO 0520/0522 4SM -RA BR BKN010
     FM060200 36015G22KT P6SM OVC015=



000
FTUS44 KMOB 050534
TAFMOB
TAF
KMOB 050534Z 0506/0606 19012KT P6SM VCSH BKN014 BKN018 OVC027
     FM050800 18006KT 1/2SM FG OVC002
     FM051500 35016G26KT 3SM -RA BR OVC004
     FM051800 36016KT P6SM OVC015
      TEMPO 0518/0520 4SM -RA BR BKN010
     FM060000 36015G22KT P6SM OVC015=



000
FTUS44 KMOB 050335 AAA
TAFPNS
TAF AMD
KPNS 050335Z 0504/0524 17012KT 5SM BR OVC003
     FM051600 35016G26KT 2SM -RA BR OVC004
     FM052000 35015KT 4SM -RA BR OVC015=



000
FTUS44 KMOB 050335 AAA
TAFPNS
TAF AMD
KPNS 050335Z 0504/0524 17012KT 5SM BR OVC003
     FM051600 35016G26KT 2SM -RA BR OVC004
     FM052000 35015KT 4SM -RA BR OVC015=



000
FTUS44 KMOB 042348
TAFPNS
TAF
KPNS 042348Z 0500/0524 16010KT P6SM BKN008 OVC023
     FM050300 18006KT 1/4SM FG OVC001
     FM051600 35016G26KT 2SM -RA BR OVC004
     FM052000 35015KT 4SM -RA BR OVC015=



000
FTUS44 KMOB 042348
TAFPNS
TAF
KPNS 042348Z 0500/0524 16010KT P6SM BKN008 OVC023
     FM050300 18006KT 1/4SM FG OVC001
     FM051600 35016G26KT 2SM -RA BR OVC004
     FM052000 35015KT 4SM -RA BR OVC015=



000
FTUS44 KMOB 042348
TAFMOB
TAF
KMOB 042348Z 0500/0524 19012KT P6SM BKN014 BKN018 OVC027
     FM050500 18006KT 1/2SM FG OVC002
     FM051500 35016G26KT 3SM -RA BR OVC004
     FM051800 36016KT 4SM -RA BR OVC015=



000
FTUS44 KMOB 042348
TAFPNS
TAF
KPNS 042348Z 0500/0524 16010KT P6SM BKN008 OVC023
     FM050300 18006KT 1/4SM FG OVC001
     FM051600 35016G26KT 2SM -RA BR OVC004
     FM052000 35015KT 4SM -RA BR OVC015=



000
FTUS44 KMOB 042348
TAFMOB
TAF
KMOB 042348Z 0500/0524 19012KT P6SM BKN014 BKN018 OVC027
     FM050500 18006KT 1/2SM FG OVC002
     FM051500 35016G26KT 3SM -RA BR OVC004
     FM051800 36016KT 4SM -RA BR OVC015=



000
FTUS44 KMOB 042348
TAFPNS
TAF
KPNS 042348Z 0500/0524 16010KT P6SM BKN008 OVC023
     FM050300 18006KT 1/4SM FG OVC001
     FM051600 35016G26KT 2SM -RA BR OVC004
     FM052000 35015KT 4SM -RA BR OVC015=



000
FTUS44 KMOB 042348
TAFMOB
TAF
KMOB 042348Z 0500/0524 19012KT P6SM BKN014 BKN018 OVC027
     FM050500 18006KT 1/2SM FG OVC002
     FM051500 35016G26KT 3SM -RA BR OVC004
     FM051800 36016KT 4SM -RA BR OVC015=



000
FTUS44 KMOB 042348
TAFMOB
TAF
KMOB 042348Z 0500/0524 19012KT P6SM BKN014 BKN018 OVC027
     FM050500 18006KT 1/2SM FG OVC002
     FM051500 35016G26KT 3SM -RA BR OVC004
     FM051800 36016KT 4SM -RA BR OVC015=



000
FTUS44 KMOB 042216 AAA
TAFPNS
TAF AMD
KPNS 042216Z 0422/0518 17014KT P6SM FEW010 BKN035
     FM050000 16009KT 1SM BR OVC002
     FM050300 18006KT 1/4SM FG OVC001
     FM051600 35016G26KT 2SM -RA BR OVC004=



000
FTUS44 KMOB 042216 AAA
TAFPNS
TAF AMD
KPNS 042216Z 0422/0518 17014KT P6SM FEW010 BKN035
     FM050000 16009KT 1SM BR OVC002
     FM050300 18006KT 1/4SM FG OVC001
     FM051600 35016G26KT 2SM -RA BR OVC004=



000
FTUS44 KMOB 041737
TAFPNS
TAF
KPNS 041737Z 0418/0518 17008KT 5SM BR OVC004
      TEMPO 0418/0422 SCT004 BKN020
     FM050000 16009KT 1SM BR OVC002
     FM050300 18006KT 1/4SM FG OVC001
     FM051600 35016G26KT 2SM -RA BR OVC004=



000
FTUS44 KMOB 041737
TAFMOB
TAF
KMOB 041737Z 0418/0518 18014G22KT P6SM SCT025 BKN035
     FM050000 16009KT 3SM BR OVC003
     FM050500 18006KT 1/2SM FG OVC002
     FM051500 35016G26KT 3SM -RA BR OVC004=



000
FTUS44 KMOB 041737
TAFMOB
TAF
KMOB 041737Z 0418/0518 18014G22KT P6SM SCT025 BKN035
     FM050000 16009KT 3SM BR OVC003
     FM050500 18006KT 1/2SM FG OVC002
     FM051500 35016G26KT 3SM -RA BR OVC004=



000
FTUS44 KMOB 041737
TAFPNS
TAF
KPNS 041737Z 0418/0518 17008KT 5SM BR OVC004
      TEMPO 0418/0422 SCT004 BKN020
     FM050000 16009KT 1SM BR OVC002
     FM050300 18006KT 1/4SM FG OVC001
     FM051600 35016G26KT 2SM -RA BR OVC004=



000
FTUS44 KMOB 041737
TAFPNS
TAF
KPNS 041737Z 0418/0518 17008KT 5SM BR OVC004
      TEMPO 0418/0422 SCT004 BKN020
     FM050000 16009KT 1SM BR OVC002
     FM050300 18006KT 1/4SM FG OVC001
     FM051600 35016G26KT 2SM -RA BR OVC004=



000
FTUS44 KMOB 041737
TAFMOB
TAF
KMOB 041737Z 0418/0518 18014G22KT P6SM SCT025 BKN035
     FM050000 16009KT 3SM BR OVC003
     FM050500 18006KT 1/2SM FG OVC002
     FM051500 35016G26KT 3SM -RA BR OVC004=



000
FTUS44 KMOB 041737
TAFMOB
TAF
KMOB 041737Z 0418/0518 18014G22KT P6SM SCT025 BKN035
     FM050000 16009KT 3SM BR OVC003
     FM050500 18006KT 1/2SM FG OVC002
     FM051500 35016G26KT 3SM -RA BR OVC004=



000
FTUS44 KMOB 041737
TAFPNS
TAF
KPNS 041737Z 0418/0518 17008KT 5SM BR OVC004
      TEMPO 0418/0422 SCT004 BKN020
     FM050000 16009KT 1SM BR OVC002
     FM050300 18006KT 1/4SM FG OVC001
     FM051600 35016G26KT 2SM -RA BR OVC004=



000
FTUS44 KMOB 041546 AAB
TAFPNS
TAF AMD
KPNS 041546Z 0416/0512 17008KT 1/4SM FG OVC002
      TEMPO 0416/0418 3SM BR
     FM041800 16007KT P6SM VCSH OVC015
     FM050300 16005KT 1SM BR VCSH OVC002=



000
FTUS44 KMOB 041546 AAB
TAFPNS
TAF AMD
KPNS 041546Z 0416/0512 17008KT 1/4SM FG OVC002
      TEMPO 0416/0418 3SM BR
     FM041800 16007KT P6SM VCSH OVC015
     FM050300 16005KT 1SM BR VCSH OVC002=



000
FTUS44 KMOB 041546 AAB
TAFPNS
TAF AMD
KPNS 041546Z 0416/0512 17008KT 1/4SM FG OVC002
      TEMPO 0416/0418 3SM BR
     FM041800 16007KT P6SM VCSH OVC015
     FM050300 16005KT 1SM BR VCSH OVC002=



000
FTUS44 KMOB 041546 AAB
TAFPNS
TAF AMD
KPNS 041546Z 0416/0512 17008KT 1/4SM FG OVC002
      TEMPO 0416/0418 3SM BR
     FM041800 16007KT P6SM VCSH OVC015
     FM050300 16005KT 1SM BR VCSH OVC002=



000
FTUS44 KMOB 041250 AAA
TAFPNS
TAF AMD
KPNS 041250Z 0413/0512 16008KT 1/4SM FG OVC002
     FM041600 17012KT 4SM BR SCT007 OVC015
     FM041800 16007KT P6SM VCSH OVC015
     FM050300 16005KT 1SM BR VCSH OVC002=



000
FTUS44 KMOB 041250 AAA
TAFPNS
TAF AMD
KPNS 041250Z 0413/0512 16008KT 1/4SM FG OVC002
     FM041600 17012KT 4SM BR SCT007 OVC015
     FM041800 16007KT P6SM VCSH OVC015
     FM050300 16005KT 1SM BR VCSH OVC002=



000
FTUS44 KMOB 041250 AAA
TAFPNS
TAF AMD
KPNS 041250Z 0413/0512 16008KT 1/4SM FG OVC002
     FM041600 17012KT 4SM BR SCT007 OVC015
     FM041800 16007KT P6SM VCSH OVC015
     FM050300 16005KT 1SM BR VCSH OVC002=



000
FTUS44 KMOB 041144
TAFMOB
TAF
KMOB 041144Z 0412/0512 15008KT 5SM BR OVC004
      TEMPO 0412/0414 1/4SM FG VV002
     FM041500 18011KT 4SM BR OVC007
     FM042100 17011KT P6SM VCSH BKN025
     FM050400 16005KT 2SM BR VCSH OVC003=



000
FTUS44 KMOB 041144
TAFPNS
TAF
KPNS 041144Z 0412/0512 15005KT 1/4SM FG VV002
     FM041600 17012KT 4SM BR SCT007 OVC015
     FM041800 16007KT P6SM VCSH OVC015
     FM050300 16005KT 1SM BR VCSH OVC002=



000
FTUS44 KMOB 041144
TAFMOB
TAF
KMOB 041144Z 0412/0512 15008KT 5SM BR OVC004
      TEMPO 0412/0414 1/4SM FG VV002
     FM041500 18011KT 4SM BR OVC007
     FM042100 17011KT P6SM VCSH BKN025
     FM050400 16005KT 2SM BR VCSH OVC003=



000
FTUS44 KMOB 041144
TAFPNS
TAF
KPNS 041144Z 0412/0512 15005KT 1/4SM FG VV002
     FM041600 17012KT 4SM BR SCT007 OVC015
     FM041800 16007KT P6SM VCSH OVC015
     FM050300 16005KT 1SM BR VCSH OVC002=



000
FTUS44 KMOB 041144
TAFMOB
TAF
KMOB 041144Z 0412/0512 15008KT 5SM BR OVC004
      TEMPO 0412/0414 1/4SM FG VV002
     FM041500 18011KT 4SM BR OVC007
     FM042100 17011KT P6SM VCSH BKN025
     FM050400 16005KT 2SM BR VCSH OVC003=



000
FTUS44 KMOB 041144
TAFPNS
TAF
KPNS 041144Z 0412/0512 15005KT 1/4SM FG VV002
     FM041600 17012KT 4SM BR SCT007 OVC015
     FM041800 16007KT P6SM VCSH OVC015
     FM050300 16005KT 1SM BR VCSH OVC002=



000
FTUS44 KMOB 041144
TAFMOB
TAF
KMOB 041144Z 0412/0512 15008KT 5SM BR OVC004
      TEMPO 0412/0414 1/4SM FG VV002
     FM041500 18011KT 4SM BR OVC007
     FM042100 17011KT P6SM VCSH BKN025
     FM050400 16005KT 2SM BR VCSH OVC003=



000
FTUS44 KMOB 041144
TAFPNS
TAF
KPNS 041144Z 0412/0512 15005KT 1/4SM FG VV002
     FM041600 17012KT 4SM BR SCT007 OVC015
     FM041800 16007KT P6SM VCSH OVC015
     FM050300 16005KT 1SM BR VCSH OVC002=



000
FTUS44 KMOB 040526
TAFPNS
TAF
KPNS 040526Z 0406/0506 14008KT 5SM BR OVC003
     FM041600 17012KT 4SM BR SCT007 OVC015
     FM050400 16005KT 1SM BR OVC002=



000
FTUS44 KMOB 040526
TAFMOB
TAF
KMOB 040526Z 0406/0506 15011KT 4SM BR OVC002
     FM040800 15006KT 1/4SM FG OVC004
     FM041500 18011KT 4SM BR OVC007
     FM042100 17011KT P6SM BKN025
     FM050400 16005KT 2SM BR OVC003=



000
FTUS44 KMOB 040526
TAFPNS
TAF
KPNS 040526Z 0406/0506 14008KT 5SM BR OVC003
     FM041600 17012KT 4SM BR SCT007 OVC015
     FM050400 16005KT 1SM BR OVC002=



000
FTUS44 KMOB 040526
TAFPNS
TAF
KPNS 040526Z 0406/0506 14008KT 5SM BR OVC003
     FM041600 17012KT 4SM BR SCT007 OVC015
     FM050400 16005KT 1SM BR OVC002=



000
FTUS44 KMOB 040526
TAFMOB
TAF
KMOB 040526Z 0406/0506 15011KT 4SM BR OVC002
     FM040800 15006KT 1/4SM FG OVC004
     FM041500 18011KT 4SM BR OVC007
     FM042100 17011KT P6SM BKN025
     FM050400 16005KT 2SM BR OVC003=



000
FTUS44 KMOB 040411 AAC
TAFMOB
TAF AMD
KMOB 040411Z 0404/0424 15008KT 3SM BR OVC003
     FM040800 15006KT 1/4SM FG OVC004
     FM041500 18011KT 4SM BR OVC007
     FM042100 17011KT P6SM BKN025=



000
FTUS44 KMOB 040411 AAC
TAFMOB
TAF AMD
KMOB 040411Z 0404/0424 15008KT 3SM BR OVC003
     FM040800 15006KT 1/4SM FG OVC004
     FM041500 18011KT 4SM BR OVC007
     FM042100 17011KT P6SM BKN025=



000
FTUS44 KMOB 040409 AAB
TAFPNS
TAF AMD
KPNS 040409Z 0404/0424 12007KT 2SM BR OVC002
     FM040600 15006KT 1/4SM FG OVC002
     FM041600 17012KT 4SM BR SCT007 OVC015=



000
FTUS44 KMOB 040409 AAB
TAFPNS
TAF AMD
KPNS 040409Z 0404/0424 12007KT 2SM BR OVC002
     FM040600 15006KT 1/4SM FG OVC002
     FM041600 17012KT 4SM BR SCT007 OVC015=



000
FTUS44 KMOB 040307 AAB
TAFMOB
TAF AMD
KMOB 040307Z 0403/0424 15004KT P6SM FEW005 BKN040
     FM040800 15006KT 1/4SM FG OVC004
     FM041500 18011KT 4SM BR OVC007
     FM042100 17011KT P6SM BKN025=



000
FTUS44 KMOB 040307 AAB
TAFMOB
TAF AMD
KMOB 040307Z 0403/0424 15004KT P6SM FEW005 BKN040
     FM040800 15006KT 1/4SM FG OVC004
     FM041500 18011KT 4SM BR OVC007
     FM042100 17011KT P6SM BKN025=



000
FTUS44 KMOB 040259 AAA
TAFPNS
TAF AMD
KPNS 040259Z 0403/0424 13008KT 1/4SM FG VV002
     FM041600 17012KT 4SM BR SCT007 OVC015=



000
FTUS44 KMOB 040259 AAA
TAFPNS
TAF AMD
KPNS 040259Z 0403/0424 13008KT 1/4SM FG VV002
     FM041600 17012KT 4SM BR SCT007 OVC015=



000
FTUS44 KMOB 040259 AAA
TAFPNS
TAF AMD
KPNS 040259Z 0403/0424 13008KT 1/4SM FG VV002
     FM041600 17012KT 4SM BR SCT007 OVC015=



000
FTUS44 KMOB 040259 AAA
TAFPNS
TAF AMD
KPNS 040259Z 0403/0424 13008KT 1/4SM FG VV002
     FM041600 17012KT 4SM BR SCT007 OVC015=



000
FTUS44 KMOB 032335
TAFPNS
TAF
KPNS 032335Z 0400/0424 14007KT P6SM BKN007 OVC015
     FM040300 15005KT 1/4SM FG OVC004
     FM041600 17012KT 4SM BR SCT007 OVC015=



000
FTUS44 KMOB 032335
TAFMOB
TAF
KMOB 032335Z 0400/0424 14011KT P6SM BKN017
     FM040300 15006KT 1/4SM FG OVC004
     FM041500 18011KT 4SM BR OVC007
     FM042100 17011KT P6SM BKN025=



000
FTUS44 KMOB 032335
TAFPNS
TAF
KPNS 032335Z 0400/0424 14007KT P6SM BKN007 OVC015
     FM040300 15005KT 1/4SM FG OVC004
     FM041600 17012KT 4SM BR SCT007 OVC015=



000
FTUS44 KMOB 032335
TAFPNS
TAF
KPNS 032335Z 0400/0424 14007KT P6SM BKN007 OVC015
     FM040300 15005KT 1/4SM FG OVC004
     FM041600 17012KT 4SM BR SCT007 OVC015=



000
FTUS44 KMOB 032335
TAFMOB
TAF
KMOB 032335Z 0400/0424 14011KT P6SM BKN017
     FM040300 15006KT 1/4SM FG OVC004
     FM041500 18011KT 4SM BR OVC007
     FM042100 17011KT P6SM BKN025=



000
FTUS44 KMOB 032335
TAFMOB
TAF
KMOB 032335Z 0400/0424 14011KT P6SM BKN017
     FM040300 15006KT 1/4SM FG OVC004
     FM041500 18011KT 4SM BR OVC007
     FM042100 17011KT P6SM BKN025=



000
FTUS44 KMOB 032335
TAFPNS
TAF
KPNS 032335Z 0400/0424 14007KT P6SM BKN007 OVC015
     FM040300 15005KT 1/4SM FG OVC004
     FM041600 17012KT 4SM BR SCT007 OVC015=



000
FTUS44 KMOB 031742
TAFMOB
TAF
KMOB 031742Z 0318/0418 14009KT P6SM OVC015
     FM032100 17012KT P6SM BKN025
     FM040300 15006KT 1/4SM FG OVC004=



000
FTUS44 KMOB 031742
TAFPNS
TAF
KPNS 031742Z 0318/0418 13005KT 3SM BR OVC003
     FM032100 14005KT 5SM BR OVC008
     FM040300 15005KT 1/4SM FG OVC004=



000
FTUS44 KMOB 031742
TAFMOB
TAF
KMOB 031742Z 0318/0418 14009KT P6SM OVC015
     FM032100 17012KT P6SM BKN025
     FM040300 15006KT 1/4SM FG OVC004=



000
FTUS44 KMOB 031742
TAFPNS
TAF
KPNS 031742Z 0318/0418 13005KT 3SM BR OVC003
     FM032100 14005KT 5SM BR OVC008
     FM040300 15005KT 1/4SM FG OVC004=



000
FTUS44 KMOB 031742
TAFMOB
TAF
KMOB 031742Z 0318/0418 14009KT P6SM OVC015
     FM032100 17012KT P6SM BKN025
     FM040300 15006KT 1/4SM FG OVC004=



000
FTUS44 KMOB 031742
TAFPNS
TAF
KPNS 031742Z 0318/0418 13005KT 3SM BR OVC003
     FM032100 14005KT 5SM BR OVC008
     FM040300 15005KT 1/4SM FG OVC004=



000
FTUS44 KMOB 031742
TAFPNS
TAF
KPNS 031742Z 0318/0418 13005KT 3SM BR OVC003
     FM032100 14005KT 5SM BR OVC008
     FM040300 15005KT 1/4SM FG OVC004=



000
FTUS44 KMOB 031742
TAFMOB
TAF
KMOB 031742Z 0318/0418 14009KT P6SM OVC015
     FM032100 17012KT P6SM BKN025
     FM040300 15006KT 1/4SM FG OVC004=



000
FTUS44 KMOB 031623 AAB
TAFMOB
TAF AMD
KMOB 031623Z 0316/0412 14009KT 3SM BR BKN006 OVC015
     FM031800 17010KT 5SM BR OVC007
     FM032100 16012KT P6SM OVC007
     FM040300 15006KT 1/4SM FG OVC004=



000
FTUS44 KMOB 031623 AAB
TAFMOB
TAF AMD
KMOB 031623Z 0316/0412 14009KT 3SM BR BKN006 OVC015
     FM031800 17010KT 5SM BR OVC007
     FM032100 16012KT P6SM OVC007
     FM040300 15006KT 1/4SM FG OVC004=



000
FTUS44 KMOB 031343 AAA
TAFPNS
TAF AMD
KPNS 031343Z 0314/0412 13005KT 1/2SM FG VV003
     FM031700 16009KT P6SM OVC007
     FM040000 14005KT 4SM BR OVC004
     FM040300 15005KT 1/4SM FG OVC004=



000
FTUS44 KMOB 031343 AAA
TAFPNS
TAF AMD
KPNS 031343Z 0314/0412 13005KT 1/2SM FG VV003
     FM031700 16009KT P6SM OVC007
     FM040000 14005KT 4SM BR OVC004
     FM040300 15005KT 1/4SM FG OVC004=



000
FTUS44 KMOB 031343 AAA
TAFPNS
TAF AMD
KPNS 031343Z 0314/0412 13005KT 1/2SM FG VV003
     FM031700 16009KT P6SM OVC007
     FM040000 14005KT 4SM BR OVC004
     FM040300 15005KT 1/4SM FG OVC004=



000
FTUS44 KMOB 031343 AAA
TAFPNS
TAF AMD
KPNS 031343Z 0314/0412 13005KT 1/2SM FG VV003
     FM031700 16009KT P6SM OVC007
     FM040000 14005KT 4SM BR OVC004
     FM040300 15005KT 1/4SM FG OVC004=



000
FTUS44 KMOB 031342 AAA
TAFMOB
TAF AMD
KMOB 031342Z 0314/0412 13005KT 1/2SM FG VV002
     FM031700 17010KT 5SM HZ OVC007
     FM032100 16012KT P6SM OVC007
     FM040300 15006KT 1/4SM FG OVC004=



000
FTUS44 KMOB 031342 AAA
TAFMOB
TAF AMD
KMOB 031342Z 0314/0412 13005KT 1/2SM FG VV002
     FM031700 17010KT 5SM HZ OVC007
     FM032100 16012KT P6SM OVC007
     FM040300 15006KT 1/4SM FG OVC004=



000
FTUS44 KMOB 031342 AAA
TAFMOB
TAF AMD
KMOB 031342Z 0314/0412 13005KT 1/2SM FG VV002
     FM031700 17010KT 5SM HZ OVC007
     FM032100 16012KT P6SM OVC007
     FM040300 15006KT 1/4SM FG OVC004=



000
FTUS44 KMOB 031342 AAA
TAFMOB
TAF AMD
KMOB 031342Z 0314/0412 13005KT 1/2SM FG VV002
     FM031700 17010KT 5SM HZ OVC007
     FM032100 16012KT P6SM OVC007
     FM040300 15006KT 1/4SM FG OVC004=



000
FTUS44 KMOB 031136
TAFMOB
TAF
KMOB 031136Z 0312/0412 12003KT 1/4SM FG VV001
     FM031700 17010KT 5SM HZ OVC007
     FM032100 16012KT P6SM OVC007
     FM040300 15006KT 1/4SM FG OVC004=



000
FTUS44 KMOB 031136
TAFPNS
TAF
KPNS 031136Z 0312/0412 10004KT 1/4SM FG VV002
     FM031700 16009KT P6SM OVC007
     FM040000 14005KT 4SM BR OVC004
     FM040300 15005KT 1/4SM FG OVC004=



000
FTUS44 KMOB 031136
TAFMOB
TAF
KMOB 031136Z 0312/0412 12003KT 1/4SM FG VV001
     FM031700 17010KT 5SM HZ OVC007
     FM032100 16012KT P6SM OVC007
     FM040300 15006KT 1/4SM FG OVC004=



000
FTUS44 KMOB 031136
TAFPNS
TAF
KPNS 031136Z 0312/0412 10004KT 1/4SM FG VV002
     FM031700 16009KT P6SM OVC007
     FM040000 14005KT 4SM BR OVC004
     FM040300 15005KT 1/4SM FG OVC004=



000
FTUS44 KMOB 031136
TAFMOB
TAF
KMOB 031136Z 0312/0412 12003KT 1/4SM FG VV001
     FM031700 17010KT 5SM HZ OVC007
     FM032100 16012KT P6SM OVC007
     FM040300 15006KT 1/4SM FG OVC004=



000
FTUS44 KMOB 031136
TAFPNS
TAF
KPNS 031136Z 0312/0412 10004KT 1/4SM FG VV002
     FM031700 16009KT P6SM OVC007
     FM040000 14005KT 4SM BR OVC004
     FM040300 15005KT 1/4SM FG OVC004=



000
FTUS44 KMOB 031136
TAFMOB
TAF
KMOB 031136Z 0312/0412 12003KT 1/4SM FG VV001
     FM031700 17010KT 5SM HZ OVC007
     FM032100 16012KT P6SM OVC007
     FM040300 15006KT 1/4SM FG OVC004=



000
FTUS44 KMOB 031136
TAFPNS
TAF
KPNS 031136Z 0312/0412 10004KT 1/4SM FG VV002
     FM031700 16009KT P6SM OVC007
     FM040000 14005KT 4SM BR OVC004
     FM040300 15005KT 1/4SM FG OVC004=



000
FTUS44 KMOB 030541
TAFMOB
TAF
KMOB 030541Z 0306/0406 12003KT 1/4SM FG VV001
     FM031600 15007KT 1/2SM FG OVC001
     FM031800 16010KT 1/2SM FG OVC007
     FM032100 16011KT 6SM BR OVC007=



000
FTUS44 KMOB 030541
TAFMOB
TAF
KMOB 030541Z 0306/0406 12003KT 1/4SM FG VV001
     FM031600 15007KT 1/2SM FG OVC001
     FM031800 16010KT 1/2SM FG OVC007
     FM032100 16011KT 6SM BR OVC007=



000
FTUS44 KMOB 030541
TAFPNS
TAF
KPNS 030541Z 0306/0406 10004KT 1/4SM FG VV002
     FM031600 14007KT 1 1/2SM BR OVC001
     FM031800 15008KT 6SM BR OVC007
     FM032100 16011KT 6SM BR OVC007=



000
FTUS44 KMOB 030541
TAFPNS
TAF
KPNS 030541Z 0306/0406 10004KT 1/4SM FG VV002
     FM031600 14007KT 1 1/2SM BR OVC001
     FM031800 15008KT 6SM BR OVC007
     FM032100 16011KT 6SM BR OVC007=



000
FTUS44 KMOB 030541
TAFPNS
TAF
KPNS 030541Z 0306/0406 10004KT 1/4SM FG VV002
     FM031600 14007KT 1 1/2SM BR OVC001
     FM031800 15008KT 6SM BR OVC007
     FM032100 16011KT 6SM BR OVC007=



000
FTUS44 KMOB 030541
TAFMOB
TAF
KMOB 030541Z 0306/0406 12003KT 1/4SM FG VV001
     FM031600 15007KT 1/2SM FG OVC001
     FM031800 16010KT 1/2SM FG OVC007
     FM032100 16011KT 6SM BR OVC007=



000
FTUS44 KMOB 030541
TAFPNS
TAF
KPNS 030541Z 0306/0406 10004KT 1/4SM FG VV002
     FM031600 14007KT 1 1/2SM BR OVC001
     FM031800 15008KT 6SM BR OVC007
     FM032100 16011KT 6SM BR OVC007=



000
FTUS44 KMOB 030541
TAFMOB
TAF
KMOB 030541Z 0306/0406 12003KT 1/4SM FG VV001
     FM031600 15007KT 1/2SM FG OVC001
     FM031800 16010KT 1/2SM FG OVC007
     FM032100 16011KT 6SM BR OVC007=



000
FTUS44 KMOB 030148 AAB
TAFPNS
TAF AMD
KPNS 030148Z 0302/0324 10004KT 1/4SM FG VV002
     FM031500 17005KT P6SM BKN011=



000
FTUS44 KMOB 030148 AAB
TAFPNS
TAF AMD
KPNS 030148Z 0302/0324 10004KT 1/4SM FG VV002
     FM031500 17005KT P6SM BKN011=



000
FTUS44 KMOB 030145 AAB
TAFMOB
TAF AMD
KMOB 030145Z 0302/0324 12003KT 1/4SM FG VV003
     FM031500 17005KT P6SM BKN011=



000
FTUS44 KMOB 030145 AAB
TAFMOB
TAF AMD
KMOB 030145Z 0302/0324 12003KT 1/4SM FG VV003
     FM031500 17005KT P6SM BKN011=



000
FTUS44 KMOB 030105 AAA
TAFPNS
TAF AMD
KPNS 030105Z 0301/0324 00000KT 1 1/2SM BR OVC002
     FM030300 08004KT 1/4SM FG VV002
     FM031500 17005KT P6SM BKN011=



000
FTUS44 KMOB 030105 AAA
TAFPNS
TAF AMD
KPNS 030105Z 0301/0324 00000KT 1 1/2SM BR OVC002
     FM030300 08004KT 1/4SM FG VV002
     FM031500 17005KT P6SM BKN011=



000
FTUS44 KMOB 022340
TAFMOB
TAF
KMOB 022340Z 0300/0324 07003KT 2SM RA BR OVC007
     FM030300 VRB03KT 4SM BR OVC005
     FM030900 00000KT 2SM BR OVC003
      TEMPO 0310/0314 1/4SM FG VV001
     FM031500 17005KT P6SM BKN011=



000
FTUS44 KMOB 022340
TAFPNS
TAF
KPNS 022340Z 0300/0324 16003KT P6SM OVC004
     FM030300 08004KT 2SM BR OVC007
      TEMPO 0308/0312 1/4SM FG VV002
     FM031500 17005KT P6SM BKN011=



000
FTUS44 KMOB 022340
TAFMOB
TAF
KMOB 022340Z 0300/0324 07003KT 2SM RA BR OVC007
     FM030300 VRB03KT 4SM BR OVC005
     FM030900 00000KT 2SM BR OVC003
      TEMPO 0310/0314 1/4SM FG VV001
     FM031500 17005KT P6SM BKN011=



000
FTUS44 KMOB 022340
TAFPNS
TAF
KPNS 022340Z 0300/0324 16003KT P6SM OVC004
     FM030300 08004KT 2SM BR OVC007
      TEMPO 0308/0312 1/4SM FG VV002
     FM031500 17005KT P6SM BKN011=



000
FTUS44 KMOB 022340
TAFPNS
TAF
KPNS 022340Z 0300/0324 16003KT P6SM OVC004
     FM030300 08004KT 2SM BR OVC007
      TEMPO 0308/0312 1/4SM FG VV002
     FM031500 17005KT P6SM BKN011=



000
FTUS44 KMOB 022340
TAFMOB
TAF
KMOB 022340Z 0300/0324 07003KT 2SM RA BR OVC007
     FM030300 VRB03KT 4SM BR OVC005
     FM030900 00000KT 2SM BR OVC003
      TEMPO 0310/0314 1/4SM FG VV001
     FM031500 17005KT P6SM BKN011=



000
FTUS44 KMOB 022340
TAFMOB
TAF
KMOB 022340Z 0300/0324 07003KT 2SM RA BR OVC007
     FM030300 VRB03KT 4SM BR OVC005
     FM030900 00000KT 2SM BR OVC003
      TEMPO 0310/0314 1/4SM FG VV001
     FM031500 17005KT P6SM BKN011=



000
FTUS44 KMOB 022340
TAFPNS
TAF
KPNS 022340Z 0300/0324 16003KT P6SM OVC004
     FM030300 08004KT 2SM BR OVC007
      TEMPO 0308/0312 1/4SM FG VV002
     FM031500 17005KT P6SM BKN011=



000
FTUS44 KMOB 022232 AAA
TAFPNS
TAF AMD
KPNS 022232Z 0223/0318 16004KT 2SM BR OVC003
     FM030300 08004KT 2SM BR OVC007
      TEMPO 0308/0312 1/4SM FG VV002
     FM031500 17005KT P6SM BKN011=



000
FTUS44 KMOB 022232 AAA
TAFPNS
TAF AMD
KPNS 022232Z 0223/0318 16004KT 2SM BR OVC003
     FM030300 08004KT 2SM BR OVC007
      TEMPO 0308/0312 1/4SM FG VV002
     FM031500 17005KT P6SM BKN011=



000
FTUS44 KMOB 022226 AAA
TAFMOB
TAF AMD
KMOB 022226Z 0222/0318 12003KT 2SM BR OVC008
     FM030300 VRB03KT 4SM BR OVC005
     FM030900 00000KT 2SM BR OVC003
      TEMPO 0310/0314 1/4SM FG VV001
     FM031500 17005KT P6SM BKN011=



000
FTUS44 KMOB 022226 AAA
TAFMOB
TAF AMD
KMOB 022226Z 0222/0318 12003KT 2SM BR OVC008
     FM030300 VRB03KT 4SM BR OVC005
     FM030900 00000KT 2SM BR OVC003
      TEMPO 0310/0314 1/4SM FG VV001
     FM031500 17005KT P6SM BKN011=



000
FTUS44 KMOB 021900 AAA
TAFPNS
TAF AMD
KPNS 021934Z 0220/0318 14005KT P6SM BKN010 BKN035
     FM030300 08004KT 2SM BR OVC007
      TEMPO 0308/0312 1/4SM FG VV002
     FM031500 17005KT P6SM BKN011=



000
FTUS44 KMOB 021900 AAA
TAFPNS
TAF AMD
KPNS 021934Z 0220/0318 14005KT P6SM BKN010 BKN035
     FM030300 08004KT 2SM BR OVC007
      TEMPO 0308/0312 1/4SM FG VV002
     FM031500 17005KT P6SM BKN011=



000
FTUS44 KMOB 021700 RRA
TAFPNS
TAF
KPNS 021741Z 0218/0318 12005KT 3SM BR OVC007
     FM022100 14005KT 5SM BR OVC011
     FM030300 08004KT 2SM BR OVC007
      TEMPO 0308/0312 1/4SM FG VV002
     FM031500 17005KT P6SM BKN011=



000
FTUS44 KMOB 021700 RRA
TAFMOB
TAF
KMOB 021741Z 0218/0318 VRB02KT 3SM BR OVC003
     FM022000 17004KT P6SM OVC011
     FM030300 VRB03KT 4SM BR OVC005
     FM030900 00000KT 2SM BR OVC003
      TEMPO 0310/0314 1/4SM FG VV001
     FM031500 17005KT P6SM BKN011=



000
FTUS44 KMOB 021700 RRA
TAFPNS
TAF
KPNS 021741Z 0218/0318 12005KT 3SM BR OVC007
     FM022100 14005KT 5SM BR OVC011
     FM030300 08004KT 2SM BR OVC007
      TEMPO 0308/0312 1/4SM FG VV002
     FM031500 17005KT P6SM BKN011=



000
FTUS44 KMOB 021700 RRA
TAFMOB
TAF
KMOB 021741Z 0218/0318 VRB02KT 3SM BR OVC003
     FM022000 17004KT P6SM OVC011
     FM030300 VRB03KT 4SM BR OVC005
     FM030900 00000KT 2SM BR OVC003
      TEMPO 0310/0314 1/4SM FG VV001
     FM031500 17005KT P6SM BKN011=



000
FTUS44 KMOB 021700 RRA
TAFPNS
TAF
KPNS 021741Z 0218/0318 12005KT 3SM BR OVC007
     FM022100 14005KT 5SM BR OVC011
     FM030300 08004KT 2SM BR OVC007
      TEMPO 0308/0312 1/4SM FG VV002
     FM031500 17005KT P6SM BKN011=



000
FTUS44 KMOB 021700 RRA
TAFMOB
TAF
KMOB 021741Z 0218/0318 VRB02KT 3SM BR OVC003
     FM022000 17004KT P6SM OVC011
     FM030300 VRB03KT 4SM BR OVC005
     FM030900 00000KT 2SM BR OVC003
      TEMPO 0310/0314 1/4SM FG VV001
     FM031500 17005KT P6SM BKN011=



000
FTUS44 KMOB 021700 RRA
TAFMOB
TAF
KMOB 021741Z 0218/0318 VRB02KT 3SM BR OVC003
     FM022000 17004KT P6SM OVC011
     FM030300 VRB03KT 4SM BR OVC005
     FM030900 00000KT 2SM BR OVC003
      TEMPO 0310/0314 1/4SM FG VV001
     FM031500 17005KT P6SM BKN011=



000
FTUS44 KMOB 021700 RRA
TAFPNS
TAF
KPNS 021741Z 0218/0318 12005KT 3SM BR OVC007
     FM022100 14005KT 5SM BR OVC011
     FM030300 08004KT 2SM BR OVC007
      TEMPO 0308/0312 1/4SM FG VV002
     FM031500 17005KT P6SM BKN011=



000
FTUS44 KMOB 021700 AAA
TAFMOB
TAF AMD
KMOB 021723Z 0217/0312 VRB02KT 3SM BR OVC003
      TEMPO 0217/0218 1/2SM FG VV002
     FM021900 17004KT 4SM -RA BR OVC007
     FM030300 08004KT 2SM BR OVC007 PROB30 0303/0309 2SM -DZ BR
      OVC007=



000
FTUS44 KMOB 021500 AAA
TAFMOB
TAF AMD
KMOB 021543Z 0216/0312 VRB02KT 2SM BR OVC003
      TEMPO 0216/0218 1/4SM FG VV001
     FM021900 17004KT 4SM -RA BR OVC007
     FM030300 08004KT 2SM BR OVC007 PROB30 0303/0309 2SM -DZ BR
      OVC007=



000
FTUS44 KMOB 021500 AAA
TAFMOB
TAF AMD
KMOB 021543Z 0216/0312 VRB02KT 2SM BR OVC003
      TEMPO 0216/0218 1/4SM FG VV001
     FM021900 17004KT 4SM -RA BR OVC007
     FM030300 08004KT 2SM BR OVC007 PROB30 0303/0309 2SM -DZ BR
      OVC007=



000
FTUS44 KMOB 021300 AAB
TAFPNS
TAF AMD
KPNS 021333Z 0214/0312 01004KT 1 1/2SM BR VCSH OVC003
      TEMPO 0214/0215 1/4SM FG VV001
     FM021600 15005KT 4SM -RA BR OVC007
     FM030300 08004KT 2SM BR OVC007 PROB30 0303/0309 2SM -DZ BR
      OVC007=



000
FTUS44 KMOB 021300 AAB
TAFPNS
TAF AMD
KPNS 021333Z 0214/0312 01004KT 1 1/2SM BR VCSH OVC003
      TEMPO 0214/0215 1/4SM FG VV001
     FM021600 15005KT 4SM -RA BR OVC007
     FM030300 08004KT 2SM BR OVC007 PROB30 0303/0309 2SM -DZ BR
      OVC007=



000
FTUS44 KMOB 021200 AAA
TAFPNS
TAF AMD
KPNS 021224Z 0212/0312 35003KT 1SM BR VCSH OVC003
      TEMPO 0212/0215 1/4SM FG VV001
     FM021600 15005KT 4SM -RA BR OVC007
     FM030300 08004KT 2SM BR OVC007 PROB30 0303/0309 2SM -DZ BR
      OVC007=



000
FTUS44 KMOB 021200 AAA
TAFPNS
TAF AMD
KPNS 021224Z 0212/0312 35003KT 1SM BR VCSH OVC003
      TEMPO 0212/0215 1/4SM FG VV001
     FM021600 15005KT 4SM -RA BR OVC007
     FM030300 08004KT 2SM BR OVC007 PROB30 0303/0309 2SM -DZ BR
      OVC007=



000
FTUS44 KMOB 021200 AAA
TAFPNS
TAF AMD
KPNS 021224Z 0212/0312 35003KT 1SM BR VCSH OVC003
      TEMPO 0212/0215 1/4SM FG VV001
     FM021600 15005KT 4SM -RA BR OVC007
     FM030300 08004KT 2SM BR OVC007 PROB30 0303/0309 2SM -DZ BR
      OVC007=



000
FTUS44 KMOB 021200 AAA
TAFPNS
TAF AMD
KPNS 021224Z 0212/0312 35003KT 1SM BR VCSH OVC003
      TEMPO 0212/0215 1/4SM FG VV001
     FM021600 15005KT 4SM -RA BR OVC007
     FM030300 08004KT 2SM BR OVC007 PROB30 0303/0309 2SM -DZ BR
      OVC007=



000
FTUS44 KMOB 021200 AAA
TAFMOB
TAF AMD
KMOB 021223Z 0212/0312 13007KT 1/2SM FG VCSH OVC002
      TEMPO 0212/0215 1/4SM FG VV001
     FM021600 17004KT 4SM -RA BR OVC007
     FM030300 08004KT 2SM BR OVC007 PROB30 0303/0309 2SM -DZ BR
      OVC007=



000
FTUS44 KMOB 021200 AAA
TAFMOB
TAF AMD
KMOB 021223Z 0212/0312 13007KT 1/2SM FG VCSH OVC002
      TEMPO 0212/0215 1/4SM FG VV001
     FM021600 17004KT 4SM -RA BR OVC007
     FM030300 08004KT 2SM BR OVC007 PROB30 0303/0309 2SM -DZ BR
      OVC007=



000
FTUS44 KMOB 021100 RRA
TAFMOB
TAF
KMOB 021152Z 0212/0312 12003KT 3/4SM -RA BR VV002
      TEMPO 0212/0215 1/4SM FG VV001
     FM021600 17004KT 4SM -RA BR OVC007
     FM030300 08004KT 2SM BR OVC007 PROB30 0303/0309 2SM -DZ BR
      OVC007=



000
FTUS44 KMOB 021100 RRA
TAFPNS
TAF
KPNS 021152Z 0212/0312 14004KT 6SM -RA BR OVC004
      TEMPO 0212/0215 1/4SM FG VV001
     FM021600 15005KT 4SM -RA BR OVC007
     FM030300 08004KT 2SM BR OVC007 PROB30 0303/0309 2SM -DZ BR
      OVC007=



000
FTUS44 KMOB 021100 RRA
TAFPNS
TAF
KPNS 021152Z 0212/0312 14004KT 6SM -RA BR OVC004
      TEMPO 0212/0215 1/4SM FG VV001
     FM021600 15005KT 4SM -RA BR OVC007
     FM030300 08004KT 2SM BR OVC007 PROB30 0303/0309 2SM -DZ BR
      OVC007=



000
FTUS44 KMOB 021100 RRA
TAFMOB
TAF
KMOB 021152Z 0212/0312 12003KT 3/4SM -RA BR VV002
      TEMPO 0212/0215 1/4SM FG VV001
     FM021600 17004KT 4SM -RA BR OVC007
     FM030300 08004KT 2SM BR OVC007 PROB30 0303/0309 2SM -DZ BR
      OVC007=



    US Dept of Commerce
    National Oceanic and Atmospheric Administration
    National Weather Service
    1325 East West Highway
    Silver Spring, MD 20910
    Page Author: NWS Internet Services Team
Disclaimer
Information Quality
Credits
Glossary
Privacy Policy
Freedom of Information Act (FOIA)
About Us
Career Opportunities